createdAt,value
2022-11-08T00:00:43.262Z,99.90
2022-11-08T00:03:11.271Z,99.90
2022-11-08T00:05:56.912Z,99.90
2022-11-08T00:08:42.498Z,99.90
2022-11-08T00:11:29.398Z,99.90
2022-11-08T00:14:00.305Z,99.90
2022-11-08T00:16:28.553Z,99.90
2022-11-08T00:18:56.520Z,99.90
2022-11-08T00:21:24.461Z,99.90
2022-11-08T00:23:52.374Z,99.90
2022-11-08T00:26:21.709Z,99.90
2022-11-08T00:28:49.754Z,99.90
2022-11-08T00:31:17.692Z,99.90
2022-11-08T00:33:45.579Z,99.90
2022-11-08T00:36:13.506Z,99.90
2022-11-08T00:38:43.597Z,99.90
2022-11-08T00:41:11.684Z,99.90
2022-11-08T00:43:41.096Z,99.90
2022-11-08T00:46:09.306Z,99.90
2022-11-08T00:48:37.426Z,99.90
2022-11-08T00:51:06.747Z,99.90
2022-11-08T00:53:35.269Z,99.90
2022-11-08T00:56:07.683Z,99.90
2022-11-08T00:58:36.021Z,99.90
2022-11-08T01:01:11.524Z,99.90
2022-11-08T01:03:39.735Z,99.90
2022-11-08T01:06:09.394Z,99.90
2022-11-08T01:08:37.881Z,99.90
2022-11-08T01:11:08.391Z,99.90
2022-11-08T01:13:37.051Z,99.90
2022-11-08T01:16:08.847Z,99.90
2022-11-08T01:18:38.403Z,99.90
2022-11-08T01:21:07.262Z,99.90
2022-11-08T01:23:35.780Z,99.90
2022-11-08T01:26:05.899Z,99.90
2022-11-08T01:28:34.226Z,99.90
2022-11-08T01:31:05.801Z,99.90
2022-11-08T01:33:33.896Z,99.90
2022-11-08T01:36:03.282Z,99.90
2022-11-08T01:38:31.221Z,99.90
2022-11-08T01:40:59.145Z,99.90
2022-11-08T01:43:35.780Z,99.90
2022-11-08T01:46:32.405Z,99.90
2022-11-08T01:49:25.645Z,99.90
2022-11-08T01:52:01.252Z,99.90
2022-11-08T01:54:43.579Z,99.90
2022-11-08T01:57:17.579Z,99.90
2022-11-08T01:59:48.506Z,99.90
2022-11-08T02:02:16.744Z,99.90
2022-11-08T02:04:45.052Z,99.90
2022-11-08T02:07:14.938Z,99.90
2022-11-08T02:09:46.638Z,99.90
2022-11-08T02:12:16.691Z,99.90
2022-11-08T02:14:44.818Z,99.90
2022-11-08T02:17:12.896Z,99.90
2022-11-08T02:19:43.741Z,99.90
2022-11-08T02:22:20.161Z,99.90
2022-11-08T02:24:49.480Z,99.90
2022-11-08T02:27:17.487Z,99.90
2022-11-08T02:29:45.474Z,99.90
2022-11-08T02:32:13.711Z,99.90
2022-11-08T02:34:45.818Z,99.90
2022-11-08T02:37:17.378Z,99.90
2022-11-08T02:39:46.355Z,99.90
2022-11-08T02:42:16.809Z,99.90
2022-11-08T02:44:44.724Z,99.90
2022-11-08T02:47:12.710Z,99.90
2022-11-08T02:49:40.860Z,99.90
2022-11-08T02:52:08.928Z,99.90
2022-11-08T02:54:36.940Z,99.90
2022-11-08T02:57:04.915Z,99.90
2022-11-08T02:59:34.227Z,99.90
2022-11-08T03:02:02.288Z,99.90
2022-11-08T03:04:30.382Z,99.90
2022-11-08T03:06:58.355Z,99.90
2022-11-08T03:09:27.075Z,99.90
2022-11-08T03:11:55.179Z,99.90
2022-11-08T03:14:23.592Z,99.90
2022-11-08T03:16:53.235Z,99.90
2022-11-08T03:19:21.146Z,99.90
2022-11-08T03:21:49.059Z,99.90
2022-11-08T03:24:17.232Z,99.90
2022-11-08T03:26:45.231Z,99.90
2022-11-08T03:29:13.174Z,99.90
2022-11-08T03:31:41.246Z,99.90
2022-11-08T03:34:11.682Z,99.90
2022-11-08T03:36:39.747Z,99.90
2022-11-08T03:39:07.878Z,99.90
2022-11-08T03:41:36.093Z,99.90
2022-11-08T03:44:04.134Z,99.90
2022-11-08T03:46:32.141Z,99.90
2022-11-08T03:49:00.139Z,99.90
2022-11-08T03:51:29.446Z,99.90
2022-11-08T03:53:57.396Z,99.90
2022-11-08T03:56:25.692Z,99.90
2022-11-08T03:58:53.760Z,99.90
2022-11-08T04:01:21.803Z,99.90
2022-11-08T04:03:49.784Z,99.90
2022-11-08T04:06:17.802Z,99.90
2022-11-08T04:08:47.120Z,99.90
2022-11-08T04:11:32.922Z,99.90
2022-11-08T04:14:18.367Z,99.90
2022-11-08T04:16:46.356Z,99.90
2022-11-08T04:19:32.051Z,99.90
2022-11-08T04:22:00.259Z,99.90
2022-11-08T04:24:29.672Z,99.90
2022-11-08T04:26:57.648Z,99.90
2022-11-08T04:29:25.662Z,99.90
2022-11-08T04:31:53.640Z,99.90
2022-11-08T04:34:21.700Z,99.90
2022-11-08T04:36:49.627Z,99.90
2022-11-08T04:39:17.768Z,99.90
2022-11-08T04:41:46.992Z,99.90
2022-11-08T04:44:15.628Z,99.90
2022-11-08T04:46:43.597Z,99.90
2022-11-08T04:49:11.503Z,99.90
2022-11-08T04:51:39.474Z,99.90
2022-11-08T04:54:07.831Z,99.90
2022-11-08T04:56:36.026Z,99.90
2022-11-08T04:59:10.801Z,99.90
2022-11-08T05:01:39.936Z,99.90
2022-11-08T05:04:08.125Z,99.90
2022-11-08T05:06:36.110Z,99.90
2022-11-08T05:09:04.128Z,99.90
2022-11-08T05:11:32.933Z,99.90
2022-11-08T05:14:01.119Z,99.90
2022-11-08T05:16:32.353Z,99.90
2022-11-08T05:19:00.503Z,99.90
2022-11-08T05:21:46.236Z,99.90
2022-11-08T05:24:16.547Z,99.90
2022-11-08T05:26:46.400Z,99.90
2022-11-08T05:29:15.933Z,99.90
2022-11-08T05:31:45.275Z,99.90
2022-11-08T05:34:13.321Z,99.90
2022-11-08T05:36:41.309Z,99.90
2022-11-08T05:39:09.302Z,99.90
2022-11-08T05:41:37.202Z,99.90
2022-11-08T05:44:05.243Z,99.90
2022-11-08T05:46:33.284Z,99.90
2022-11-08T05:49:03.016Z,99.90
2022-11-08T05:51:32.448Z,99.90
2022-11-08T05:54:00.374Z,99.90
2022-11-08T05:56:28.355Z,99.90
2022-11-08T05:58:56.470Z,99.90
2022-11-08T06:01:24.590Z,99.90
2022-11-08T06:03:52.573Z,99.90
2022-11-08T06:06:22.850Z,99.90
2022-11-08T06:08:52.199Z,99.90
2022-11-08T06:11:22.572Z,99.90
2022-11-08T06:13:51.230Z,99.90
2022-11-08T06:16:20.646Z,99.90
2022-11-08T06:18:48.858Z,99.90
2022-11-08T06:21:18.726Z,99.90
2022-11-08T06:23:48.064Z,99.90
2022-11-08T06:26:16.076Z,99.90
2022-11-08T06:28:44.086Z,99.90
2022-11-08T06:31:12.053Z,99.90
2022-11-08T06:33:40.041Z,99.90
2022-11-08T06:36:08.788Z,99.90
2022-11-08T06:38:36.774Z,99.90
2022-11-08T06:41:06.169Z,99.90
2022-11-08T06:43:34.133Z,99.90
2022-11-08T06:46:02.861Z,99.90
2022-11-08T06:48:35.936Z,99.90
2022-11-08T06:51:04.663Z,99.90
2022-11-08T06:53:35.514Z,99.90
2022-11-08T06:56:05.371Z,99.90
2022-11-08T06:58:33.466Z,99.90
2022-11-08T07:01:04.925Z,99.90
2022-11-08T07:03:32.947Z,99.90
2022-11-08T07:06:02.632Z,99.90
2022-11-08T07:08:30.898Z,99.90
2022-11-08T07:10:59.218Z,99.90
2022-11-08T07:13:28.823Z,99.90
2022-11-08T07:15:59.454Z,99.90
2022-11-08T07:18:28.437Z,99.90
2022-11-08T07:21:00.323Z,99.90
2022-11-08T07:23:29.087Z,99.90
2022-11-08T07:26:16.298Z,99.90
2022-11-08T07:28:45.712Z,99.90
2022-11-08T07:31:13.914Z,99.90
2022-11-08T07:33:48.014Z,99.90
2022-11-08T07:36:16.350Z,99.90
2022-11-08T07:38:44.374Z,99.90
2022-11-08T07:41:12.734Z,99.90
2022-11-08T07:43:40.721Z,99.90
2022-11-08T07:46:13.556Z,99.90
2022-11-08T07:48:41.569Z,99.90
2022-11-08T07:51:09.909Z,99.90
2022-11-08T07:53:37.916Z,99.90
2022-11-08T07:56:06.334Z,99.90
2022-11-08T07:58:34.529Z,99.90
2022-11-08T08:01:03.389Z,99.90
2022-11-08T08:03:33.118Z,99.90
2022-11-08T08:06:01.772Z,98.80
2022-11-08T08:08:31.006Z,98.40
2022-11-08T08:11:00.496Z,97.30
2022-11-08T08:13:28.815Z,98.60
2022-11-08T08:15:59.936Z,99.60
2022-11-08T08:18:28.035Z,99.90
2022-11-08T08:20:57.507Z,99.90
2022-11-08T08:23:25.599Z,99.90
2022-11-08T08:25:53.986Z,99.90
2022-11-08T08:28:22.087Z,98.40
2022-11-08T08:30:50.153Z,97.00
2022-11-08T08:33:28.371Z,95.70
2022-11-08T08:36:01.161Z,95.00
2022-11-08T08:38:30.099Z,95.50
2022-11-08T08:40:58.800Z,96.10
2022-11-08T08:43:27.764Z,96.90
2022-11-08T08:45:55.970Z,96.60
2022-11-08T08:48:24.125Z,96.10
2022-11-08T08:50:52.246Z,97.10
2022-11-08T08:53:22.178Z,98.80
2022-11-08T08:55:52.517Z,99.90
2022-11-08T08:58:20.772Z,99.90
2022-11-08T09:03:37.349Z,99.90
2022-11-08T09:06:06.060Z,99.90
2022-11-08T09:08:35.426Z,99.90
2022-11-08T09:11:03.601Z,99.90
2022-11-08T09:13:32.451Z,99.90
2022-11-08T09:16:02.829Z,98.10
2022-11-08T09:18:31.243Z,97.60
2022-11-08T09:20:59.572Z,98.30
2022-11-08T09:23:27.919Z,98.50
2022-11-08T09:26:01.272Z,97.10
2022-11-08T09:28:31.662Z,96.80
2022-11-08T09:31:08.404Z,97.10
2022-11-08T09:33:37.076Z,98.70
2022-11-08T09:36:06.654Z,99.90
2022-11-08T09:38:35.332Z,99.90
2022-11-08T09:41:28.626Z,99.50
2022-11-08T09:44:29.497Z,99.00
2022-11-08T09:46:59.999Z,98.10
2022-11-08T09:49:31.738Z,97.00
2022-11-08T09:52:01.255Z,96.20
2022-11-08T09:54:34.421Z,95.00
2022-11-08T09:57:05.348Z,95.30
2022-11-08T09:59:39.460Z,96.00
2022-11-08T10:02:17.613Z,95.90
2022-11-08T10:04:55.989Z,95.00
2022-11-08T10:07:31.737Z,95.50
2022-11-08T10:10:27.980Z,95.90
2022-11-08T10:13:06.053Z,95.40
2022-11-08T10:15:43.513Z,95.80
2022-11-08T10:18:35.713Z,96.60
2022-11-08T10:21:09.121Z,97.00
2022-11-08T10:23:45.221Z,97.40
2022-11-08T10:26:24.120Z,97.10
2022-11-08T10:29:00.248Z,96.10
2022-11-08T10:31:33.054Z,95.80
2022-11-08T10:34:03.084Z,96.60
2022-11-08T10:36:38.505Z,96.10
2022-11-08T10:39:14.985Z,96.40
2022-11-08T10:41:48.111Z,97.10
2022-11-08T10:44:21.269Z,97.60
2022-11-08T10:46:51.074Z,97.20
2022-11-08T10:49:22.202Z,96.70
2022-11-08T10:51:53.152Z,96.40
2022-11-08T10:54:44.066Z,96.50
2022-11-08T10:57:24.830Z,97.40
2022-11-08T11:00:46.984Z,97.90
2022-11-08T11:03:30.512Z,98.20
2022-11-08T11:06:05.328Z,97.00
2022-11-08T11:08:33.844Z,96.70
2022-11-08T11:11:23.636Z,95.90
2022-11-08T11:14:07.772Z,95.60
2022-11-08T11:16:38.792Z,94.80
2022-11-08T11:19:14.211Z,94.70
2022-11-08T11:21:45.275Z,94.70
2022-11-08T11:24:19.492Z,94.40
2022-11-08T11:26:51.067Z,93.60
2022-11-08T11:29:23.192Z,93.60
2022-11-08T11:31:54.271Z,93.60
2022-11-08T11:34:45.381Z,93.70
2022-11-08T11:37:21.829Z,93.80
2022-11-08T11:39:58.639Z,94.30
2022-11-08T11:42:45.266Z,94.60
2022-11-08T11:45:19.887Z,95.10
2022-11-08T11:47:53.689Z,94.20
2022-11-08T11:50:32.832Z,94.80
2022-11-08T11:53:04.759Z,95.60
2022-11-08T11:55:45.668Z,97.00
2022-11-08T11:58:26.870Z,97.50
2022-11-08T12:01:00.828Z,97.60
2022-11-08T12:03:47.055Z,97.20
2022-11-08T12:06:29.185Z,96.90
2022-11-08T12:09:19.549Z,97.10
2022-11-08T12:11:59.630Z,97.80
2022-11-08T12:14:58.197Z,98.40
2022-11-08T12:17:49.675Z,98.80
2022-11-08T12:20:31.186Z,99.00
2022-11-08T12:23:14.480Z,99.40
2022-11-08T12:25:52.150Z,99.50
2022-11-08T12:28:42.293Z,99.20
2022-11-08T12:31:22.752Z,99.30
2022-11-08T12:34:18.373Z,99.60
2022-11-08T12:37:02.982Z,99.90
2022-11-08T12:39:36.195Z,99.90
2022-11-08T12:42:27.283Z,99.90
2022-11-08T12:45:19.886Z,99.90
2022-11-08T12:47:56.949Z,99.90
2022-11-08T12:50:34.384Z,99.90
2022-11-08T13:00:09.481Z,99.90
2022-11-08T13:02:40.043Z,99.90
2022-11-08T13:05:14.413Z,99.90
2022-11-08T13:07:48.649Z,99.90
2022-11-08T13:10:27.930Z,99.90
2022-11-08T13:13:09.645Z,99.90
2022-11-08T13:16:08.738Z,99.90
2022-11-08T13:18:43.546Z,99.90
2022-11-08T13:21:40.293Z,99.90
2022-11-08T13:24:44.409Z,99.90
2022-11-08T13:27:24.677Z,99.90
2022-11-08T13:29:53.751Z,99.90
2022-11-08T13:32:53.650Z,99.90
2022-11-08T13:35:26.954Z,99.90
2022-11-08T13:38:08.894Z,99.90
2022-11-08T13:40:44.817Z,99.90
2022-11-08T13:43:24.614Z,99.90
2022-11-08T13:45:52.807Z,99.90
2022-11-08T13:48:37.589Z,99.90
2022-11-08T13:51:28.682Z,99.90
2022-11-08T13:54:01.260Z,99.90
2022-11-08T13:56:48.601Z,99.90
2022-11-08T13:59:49.863Z,99.90
2022-11-08T14:02:40.484Z,99.90
2022-11-08T14:05:26.954Z,99.90
2022-11-08T14:08:21.243Z,99.90
2022-11-08T14:11:29.173Z,99.90
2022-11-08T14:14:42.595Z,99.90
2022-11-08T14:17:33.992Z,99.90
2022-11-08T14:20:32.458Z,99.90
2022-11-08T14:23:13.783Z,99.90
2022-11-08T14:25:43.696Z,99.90
2022-11-08T14:28:24.738Z,99.90
2022-11-08T14:30:53.489Z,99.90
2022-11-08T14:33:23.209Z,99.90
2022-11-08T14:35:59.738Z,99.90
2022-11-08T14:38:30.973Z,99.90
2022-11-08T14:41:01.238Z,99.90
2022-11-08T14:43:30.318Z,99.90
2022-11-08T14:45:59.049Z,99.90
2022-11-08T14:48:31.535Z,99.90
2022-11-08T14:51:00.656Z,99.90
2022-11-08T14:53:32.153Z,99.90
2022-11-08T14:56:13.544Z,99.90
2022-11-08T14:58:41.773Z,99.90
2022-11-08T15:01:16.407Z,99.90
2022-11-08T15:03:48.884Z,99.90
2022-11-08T15:06:17.063Z,99.90
2022-11-08T15:08:52.735Z,99.90
2022-11-08T15:11:35.879Z,99.90
2022-11-08T15:14:06.252Z,99.90
2022-11-08T15:16:50.585Z,99.90
2022-11-08T15:19:29.917Z,99.90
2022-11-08T15:22:01.393Z,99.90
2022-11-08T15:24:37.867Z,99.90
2022-11-08T15:27:21.890Z,99.90
2022-11-08T15:30:03.947Z,99.90
2022-11-08T15:32:40.459Z,99.90
2022-11-08T15:35:20.839Z,99.90
2022-11-08T15:37:50.690Z,99.90
2022-11-08T15:40:22.583Z,99.90
2022-11-08T15:42:53.470Z,99.90
2022-11-08T15:45:26.035Z,99.90
2022-11-08T15:48:02.279Z,99.90
2022-11-08T15:50:31.363Z,99.90
2022-11-08T15:53:06.225Z,99.90
2022-11-08T15:55:39.612Z,99.90
2022-11-08T15:58:16.321Z,99.90
2022-11-08T16:00:47.918Z,99.90
2022-11-08T16:03:16.219Z,99.90
2022-11-08T16:05:44.483Z,99.90
2022-11-08T16:08:17.033Z,99.90
2022-11-08T16:10:54.041Z,99.90
2022-11-08T16:13:25.799Z,99.90
2022-11-08T16:15:53.779Z,99.90
2022-11-08T16:18:22.162Z,99.90
2022-11-08T16:20:50.241Z,99.90
2022-11-08T16:23:18.409Z,99.90
2022-11-08T16:25:47.447Z,99.90
2022-11-08T16:28:23.074Z,99.90
2022-11-08T16:30:51.374Z,99.90
2022-11-08T16:33:21.151Z,99.90
2022-11-08T16:35:49.629Z,99.90
2022-11-08T16:38:22.202Z,99.90
2022-11-08T16:40:50.145Z,99.90
2022-11-08T16:43:19.545Z,99.90
2022-11-08T16:48:37.081Z,99.90
2022-11-08T16:51:07.160Z,99.90
2022-11-08T16:53:37.687Z,99.90
2022-11-08T16:56:05.887Z,99.90
2022-11-08T16:58:35.210Z,99.90
2022-11-08T17:01:10.247Z,99.90
2022-11-08T17:03:38.675Z,99.90
2022-11-08T17:06:07.369Z,99.90
2022-11-08T17:08:35.326Z,99.90
2022-11-08T17:11:03.246Z,99.90
2022-11-08T17:13:34.939Z,99.90
2022-11-08T17:16:07.544Z,99.90
2022-11-08T17:18:35.569Z,99.90
2022-11-08T17:21:29.966Z,99.90
2022-11-08T17:23:54.101Z,99.90
2022-11-08T17:26:22.559Z,99.90
2022-11-08T17:28:50.552Z,99.90
2022-11-08T17:31:20.369Z,99.90
2022-11-08T17:33:48.341Z,99.90
2022-11-08T17:36:16.291Z,99.90
2022-11-08T17:38:44.689Z,99.90
2022-11-08T17:41:15.103Z,99.90
2022-11-08T17:43:44.318Z,99.90
2022-11-08T17:46:17.052Z,99.90
2022-11-08T17:48:48.757Z,99.90
2022-11-08T17:51:16.895Z,99.90
2022-11-08T17:53:45.312Z,99.90
2022-11-08T17:56:13.311Z,99.90
2022-11-08T17:58:42.047Z,99.90
2022-11-08T18:01:10.844Z,99.90
2022-11-08T18:03:39.055Z,99.90
2022-11-08T18:06:11.544Z,99.90
2022-11-08T18:08:40.033Z,99.90
2022-11-08T18:11:08.104Z,99.90
2022-11-08T18:13:36.698Z,99.90
2022-11-08T18:16:10.537Z,99.90
2022-11-08T18:18:38.996Z,99.90
2022-11-08T18:21:09.527Z,99.90
2022-11-08T18:23:40.164Z,99.90
2022-11-08T18:26:08.551Z,99.90
2022-11-08T18:28:37.995Z,99.90
2022-11-08T18:31:07.980Z,99.90
2022-11-08T18:33:37.318Z,99.90
2022-11-08T18:36:06.210Z,99.90
2022-11-08T18:38:38.984Z,99.90
2022-11-08T18:41:07.236Z,99.90
2022-11-08T18:43:35.360Z,99.90
2022-11-08T18:46:05.039Z,99.90
2022-11-08T18:48:35.574Z,99.90
2022-11-08T18:51:08.433Z,99.90
2022-11-08T18:53:38.476Z,99.90
2022-11-08T18:56:07.252Z,99.90
2022-11-08T18:58:35.677Z,99.90
2022-11-08T19:01:04.132Z,99.90
2022-11-08T19:03:33.308Z,99.90
2022-11-08T19:06:01.309Z,99.90
2022-11-08T19:08:30.659Z,99.90
2022-11-08T19:11:02.975Z,99.90
2022-11-08T19:13:46.739Z,99.90
2022-11-08T19:16:17.086Z,99.90
2022-11-08T19:18:47.083Z,99.90
2022-11-08T19:21:20.221Z,99.90
2022-11-08T19:23:49.305Z,99.90
2022-11-08T19:26:21.516Z,99.90
2022-11-08T19:28:50.805Z,99.90
2022-11-08T19:31:20.189Z,99.90
2022-11-08T19:33:49.248Z,99.90
2022-11-08T19:36:19.170Z,99.90
2022-11-08T19:38:47.894Z,99.90
2022-11-08T19:41:19.156Z,99.90
2022-11-08T19:43:48.078Z,99.90
2022-11-08T19:46:18.326Z,99.90
2022-11-08T19:48:48.695Z,99.90
2022-11-08T19:51:21.224Z,99.90
2022-11-08T19:53:49.426Z,99.90
2022-11-08T19:56:29.170Z,99.90
2022-11-08T19:59:11.372Z,99.90
2022-11-08T20:01:40.208Z,99.90
2022-11-08T20:04:11.876Z,99.90
2022-11-08T20:06:40.713Z,99.90
2022-11-08T20:09:09.259Z,99.90
2022-11-08T20:11:40.480Z,99.90
2022-11-08T20:14:09.471Z,99.90
2022-11-08T20:16:40.109Z,99.90
2022-11-08T20:19:10.058Z,99.90
2022-11-08T20:21:45.884Z,99.90
2022-11-08T20:24:15.247Z,99.90
2022-11-08T20:26:45.154Z,99.90
2022-11-08T20:29:14.663Z,99.90
2022-11-08T20:31:42.853Z,99.90
2022-11-08T20:34:12.992Z,99.90
2022-11-08T20:36:41.853Z,99.90
2022-11-08T20:39:10.836Z,99.90
2022-11-08T20:41:41.265Z,99.90
2022-11-08T20:44:11.416Z,99.90
2022-11-08T20:46:39.832Z,99.90
2022-11-08T20:49:08.140Z,99.90
2022-11-08T20:51:36.514Z,99.90
2022-11-08T20:54:04.936Z,99.90
2022-11-08T20:56:33.236Z,99.90
2022-11-08T20:59:01.188Z,99.90
2022-11-08T21:01:32.831Z,99.90
2022-11-08T21:04:01.585Z,99.90
2022-11-08T21:06:35.632Z,99.90
2022-11-08T21:09:29.650Z,99.90
2022-11-08T21:11:58.224Z,99.90
2022-11-08T21:14:28.480Z,99.90
2022-11-08T21:17:20.750Z,99.90
2022-11-08T21:19:48.368Z,99.90
2022-11-08T21:22:16.376Z,99.90
2022-11-08T21:24:45.598Z,99.90
2022-11-08T21:27:13.763Z,99.90
2022-11-08T21:29:41.689Z,99.90
2022-11-08T21:32:10.941Z,99.90
2022-11-08T21:34:45.257Z,99.90
2022-11-08T21:37:13.641Z,99.90
2022-11-08T21:39:41.744Z,99.90
2022-11-08T21:42:09.652Z,99.90
2022-11-08T21:44:37.532Z,99.90
2022-11-08T21:47:05.491Z,99.90
2022-11-08T21:49:34.761Z,99.90
2022-11-08T21:52:03.617Z,99.90
2022-11-08T21:54:31.946Z,99.90
2022-11-08T21:56:59.851Z,99.90
2022-11-08T21:59:27.811Z,99.90
2022-11-08T22:01:55.785Z,99.90
2022-11-08T22:04:23.719Z,99.90
2022-11-08T22:06:53.264Z,99.90
2022-11-08T22:09:21.322Z,99.90
2022-11-08T22:11:49.341Z,99.90
2022-11-08T22:14:17.268Z,99.90
2022-11-08T22:16:45.194Z,99.90
2022-11-08T22:19:13.572Z,99.90
2022-11-08T22:21:43.387Z,99.90
2022-11-08T22:24:14.602Z,99.90
2022-11-08T22:26:42.863Z,99.90
2022-11-08T22:29:11.140Z,99.90
2022-11-08T22:31:39.275Z,99.90
2022-11-08T22:34:08.968Z,99.90
2022-11-08T22:36:44.108Z,99.90
2022-11-08T22:39:16.690Z,99.90
2022-11-08T22:41:45.546Z,99.90
2022-11-08T22:44:14.420Z,99.90
2022-11-08T22:46:42.664Z,99.90
2022-11-08T22:49:11.226Z,99.90
2022-11-08T22:51:39.601Z,99.90
2022-11-08T22:54:08.198Z,99.90
2022-11-08T22:56:38.341Z,99.90
2022-11-08T22:59:06.715Z,99.90
2022-11-08T23:01:35.123Z,99.90
2022-11-08T23:04:03.374Z,99.90
2022-11-08T23:06:31.393Z,99.90
2022-11-08T23:08:59.457Z,99.90
2022-11-08T23:11:45.100Z,99.90
2022-11-08T23:14:36.862Z,99.90
2022-11-08T23:17:07.221Z,99.90
2022-11-08T23:19:52.704Z,99.90
2022-11-08T23:22:40.412Z,99.90
2022-11-08T23:25:09.171Z,99.90
2022-11-08T23:27:54.537Z,99.90
2022-11-08T23:30:41.363Z,99.90
2022-11-08T23:33:09.324Z,99.90
2022-11-08T23:35:37.400Z,99.90
2022-11-08T23:38:05.343Z,99.90
2022-11-08T23:40:51.193Z,99.90
2022-11-08T23:43:37.882Z,99.90
2022-11-08T23:46:09.028Z,99.90
2022-11-08T23:48:38.022Z,99.90
2022-11-08T23:51:07.188Z,99.90
2022-11-08T23:53:37.263Z,99.90
2022-11-08T23:56:06.186Z,99.90
2022-11-08T23:58:34.819Z,99.90
